createdAt,value
2022-12-11T00:00:27.720Z,100716.91
2022-12-11T00:02:56.553Z,100717.78
2022-12-11T00:05:25.089Z,100713.50
2022-12-11T00:07:52.831Z,100712.66
2022-12-11T00:10:20.663Z,100701.50
2022-12-11T00:12:49.607Z,100709.16
2022-12-11T00:15:17.088Z,100710.88
2022-12-11T00:17:44.703Z,100709.19
2022-12-11T00:20:12.771Z,100716.03
2022-12-11T00:22:40.328Z,100717.81
2022-12-11T00:25:08.685Z,100715.28
2022-12-11T00:27:36.634Z,100702.47
2022-12-11T00:30:06.997Z,100715.28
2022-12-11T00:32:37.574Z,100712.75
2022-12-11T00:35:05.945Z,100714.41
2022-12-11T00:37:33.548Z,100713.59
2022-12-11T00:40:01.055Z,100714.41
2022-12-11T00:42:28.505Z,100699.88
2022-12-11T00:44:56.385Z,100700.72
2022-12-11T00:47:25.199Z,100710.94
2022-12-11T00:49:52.863Z,100698.94
2022-12-11T00:52:20.268Z,100696.38
2022-12-11T00:54:47.811Z,100697.25
2022-12-11T00:57:15.307Z,100699.81
2022-12-11T00:59:42.773Z,100702.38
2022-12-11T01:02:10.213Z,100706.66
2022-12-11T01:04:39.009Z,100692.97
2022-12-11T01:07:06.460Z,100698.06
2022-12-11T01:09:51.861Z,100703.22
2022-12-11T01:12:19.356Z,100716.03
2022-12-11T01:14:46.782Z,100703.28
2022-12-11T01:17:14.327Z,100701.63
2022-12-11T01:19:43.147Z,100712.78
2022-12-11T01:22:10.586Z,100716.22
2022-12-11T01:24:38.306Z,100716.25
2022-12-11T01:27:05.784Z,100717.13
2022-12-11T01:29:33.509Z,100726.47
2022-12-11T01:32:00.926Z,100716.22
2022-12-11T01:34:30.161Z,100717.91
2022-12-11T01:36:59.015Z,100715.34
2022-12-11T01:39:26.538Z,100708.53
2022-12-11T01:41:58.348Z,100711.09
2022-12-11T01:45:17.281Z,100711.09
2022-12-11T01:47:45.241Z,100713.66
2022-12-11T01:50:12.935Z,100713.66
2022-12-11T01:52:43.177Z,100704.22
2022-12-11T01:55:11.225Z,100717.06
2022-12-11T01:57:40.448Z,100711.91
2022-12-11T02:00:09.292Z,100713.63
2022-12-11T02:02:40.575Z,100713.63
2022-12-11T02:05:10.211Z,100710.22
2022-12-11T02:07:40.946Z,100706.78
2022-12-11T02:10:12.562Z,100705.09
2022-12-11T02:12:49.108Z,100711.88
2022-12-11T02:15:21.741Z,100715.31
2022-12-11T02:17:55.665Z,100717.88
2022-12-11T02:20:29.455Z,100717.88
2022-12-11T02:23:15.987Z,100720.47
2022-12-11T02:25:52.952Z,100717.88
2022-12-11T02:28:26.520Z,100711.06
2022-12-11T02:31:00.796Z,100703.38
2022-12-11T02:33:35.237Z,100711.91
2022-12-11T02:36:04.838Z,100715.34
2022-12-11T02:38:35.974Z,100700.81
2022-12-11T02:41:05.439Z,100705.16
2022-12-11T02:43:36.373Z,100704.38
2022-12-11T02:46:07.334Z,100700.13
2022-12-11T02:48:36.214Z,100703.63
2022-12-11T02:51:07.281Z,100705.28
2022-12-11T02:53:39.132Z,100710.41
2022-12-11T02:56:12.267Z,100703.59
2022-12-11T02:58:46.533Z,100708.72
2022-12-11T03:01:14.109Z,100711.22
2022-12-11T03:03:41.694Z,100703.53
2022-12-11T03:06:13.430Z,100702.69
2022-12-11T03:08:40.921Z,100699.28
2022-12-11T03:11:11.451Z,100697.56
2022-12-11T03:13:41.974Z,100702.69
2022-12-11T03:16:18.901Z,100702.69
2022-12-11T03:18:53.392Z,100702.66
2022-12-11T03:21:29.062Z,100710.34
2022-12-11T03:24:04.839Z,100700.13
2022-12-11T03:26:38.028Z,100696.69
2022-12-11T03:29:14.049Z,100702.69
2022-12-11T03:31:45.119Z,100706.09
2022-12-11T03:34:19.479Z,100694.97
2022-12-11T03:36:50.326Z,100700.91
2022-12-11T03:39:21.857Z,100706.94
2022-12-11T03:41:51.760Z,100694.13
2022-12-11T03:44:22.322Z,100697.56
2022-12-11T03:46:53.818Z,100695.00
2022-12-11T03:49:25.003Z,100700.13
2022-12-11T03:51:55.426Z,100695.81
2022-12-11T03:54:24.764Z,100693.25
2022-12-11T03:56:56.405Z,100692.44
2022-12-11T03:59:25.711Z,100683.84
2022-12-11T04:01:53.376Z,100688.13
2022-12-11T04:04:21.350Z,100690.69
2022-12-11T04:06:48.941Z,100687.28
2022-12-11T04:09:16.450Z,100686.47
2022-12-11T04:11:43.969Z,100680.50
2022-12-11T04:14:31.449Z,100685.66
2022-12-11T04:17:01.643Z,100689.13
2022-12-11T04:19:46.719Z,100694.22
2022-12-11T04:22:33.987Z,100687.41
2022-12-11T04:25:01.892Z,100689.09
2022-12-11T04:27:46.824Z,100687.34
2022-12-11T04:30:16.902Z,100686.53
2022-12-11T04:32:45.748Z,100687.34
2022-12-11T04:35:14.366Z,100685.63
2022-12-11T04:37:42.579Z,100684.75
2022-12-11T04:40:43.740Z,100671.97
2022-12-11T04:43:11.395Z,100682.16
2022-12-11T04:45:38.878Z,100667.69
2022-12-11T04:48:08.514Z,100671.09
2022-12-11T04:50:36.114Z,100671.09
2022-12-11T04:53:03.673Z,100666.84
2022-12-11T04:55:31.132Z,100678.78
2022-12-11T04:57:58.595Z,100676.25
2022-12-11T05:00:26.050Z,100683.16
2022-12-11T05:02:53.681Z,100680.63
2022-12-11T05:05:22.550Z,100676.38
2022-12-11T05:07:50.489Z,100678.97
2022-12-11T05:10:17.955Z,100683.28
2022-12-11T05:12:45.407Z,100689.34
2022-12-11T05:15:13.102Z,100683.38
2022-12-11T05:17:40.888Z,100667.22
2022-12-11T05:20:09.428Z,100672.34
2022-12-11T05:22:38.466Z,100672.38
2022-12-11T05:25:06.905Z,100667.28
2022-12-11T05:27:34.742Z,100657.06
2022-12-11T05:30:02.185Z,100664.69
2022-12-11T05:32:29.622Z,100675.78
2022-12-11T05:34:57.144Z,100677.50
2022-12-11T05:37:24.568Z,100669.78
2022-12-11T05:39:53.321Z,100668.91
2022-12-11T05:42:24.098Z,100665.50
2022-12-11T05:44:55.979Z,100658.72
2022-12-11T05:47:23.439Z,100658.75
2022-12-11T05:49:50.947Z,100654.44
2022-12-11T05:52:18.509Z,100653.59
2022-12-11T05:54:45.942Z,100646.72
2022-12-11T05:57:14.734Z,100654.41
2022-12-11T05:59:42.266Z,100645.00
2022-12-11T06:02:09.912Z,100650.16
2022-12-11T06:04:37.557Z,100651.88
2022-12-11T06:07:05.654Z,100663.00
2022-12-11T06:09:33.215Z,100654.53
2022-12-11T06:12:00.669Z,100654.56
2022-12-11T06:14:29.423Z,100650.34
2022-12-11T06:16:56.928Z,100646.94
2022-12-11T06:19:24.368Z,100653.75
2022-12-11T06:21:51.878Z,100646.94
2022-12-11T06:24:19.300Z,100658.00
2022-12-11T06:26:46.902Z,100655.44
2022-12-11T06:29:14.366Z,100649.47
2022-12-11T06:31:43.333Z,100650.41
2022-12-11T06:34:13.549Z,100653.88
2022-12-11T06:36:47.488Z,100646.22
2022-12-11T06:39:14.988Z,100652.34
2022-12-11T06:41:42.464Z,100648.09
2022-12-11T06:44:10.087Z,100659.25
2022-12-11T06:46:37.629Z,100661.84
2022-12-11T06:49:06.450Z,100661.00
2022-12-11T06:51:33.956Z,100667.06
2022-12-11T06:54:01.391Z,100659.41
2022-12-11T06:56:28.906Z,100673.97
2022-12-11T06:58:57.081Z,100665.44
2022-12-11T07:01:27.253Z,100673.16
2022-12-11T07:03:57.563Z,100666.38
2022-12-11T07:06:28.356Z,100674.09
2022-12-11T07:08:56.327Z,100669.84
2022-12-11T07:11:23.886Z,100670.75
2022-12-11T07:13:51.684Z,100672.53
2022-12-11T07:16:19.495Z,100668.28
2022-12-11T07:19:01.965Z,100672.63
2022-12-11T07:21:30.907Z,100668.41
2022-12-11T07:23:58.612Z,100675.25
2022-12-11T07:27:51.734Z,100671.94
2022-12-11T07:30:19.241Z,100673.63
2022-12-11T07:32:46.771Z,100671.94
2022-12-11T07:35:14.458Z,100670.25
2022-12-11T07:37:44.852Z,100673.75
2022-12-11T07:40:13.594Z,100678.06
2022-12-11T07:42:45.933Z,100682.41
2022-12-11T07:45:14.314Z,100681.59
2022-12-11T07:47:41.835Z,100689.31
2022-12-11T07:50:10.118Z,100685.91
2022-12-11T07:52:37.824Z,100687.63
2022-12-11T07:55:07.212Z,100690.22
2022-12-11T07:57:34.689Z,100685.13
2022-12-11T08:00:02.483Z,100691.09
2022-12-11T08:02:40.262Z,100691.13
2022-12-11T08:05:09.478Z,100680.91
2022-12-11T08:07:37.338Z,100684.31
2022-12-11T08:10:06.889Z,100686.03
2022-12-11T08:12:34.501Z,100683.44
2022-12-11T08:15:02.054Z,100694.50
2022-12-11T08:17:31.912Z,100691.03
2022-12-11T08:20:04.108Z,100679.06
2022-12-11T08:22:31.828Z,100684.13
2022-12-11T08:24:59.367Z,100684.13
2022-12-11T08:27:30.421Z,100685.84
2022-12-11T08:29:57.966Z,100689.25
2022-12-11T08:32:25.421Z,100690.09
2022-12-11T08:34:52.852Z,100695.22
2022-12-11T08:37:20.322Z,100693.47
2022-12-11T08:39:47.919Z,100685.75
2022-12-11T08:42:15.348Z,100687.44
2022-12-11T08:44:44.095Z,100688.25
2022-12-11T08:47:11.595Z,100692.47
2022-12-11T08:49:39.170Z,100704.34
2022-12-11T08:52:06.855Z,100692.34
2022-12-11T08:54:34.346Z,100693.16
2022-12-11T08:57:01.790Z,100699.94
2022-12-11T08:59:29.353Z,100694.78
2022-12-11T09:01:58.355Z,100685.34
2022-12-11T09:04:25.800Z,100696.41
2022-12-11T09:06:53.403Z,100691.28
2022-12-11T09:09:20.925Z,100694.69
2022-12-11T09:11:49.617Z,100689.59
2022-12-11T09:14:17.407Z,100698.06
2022-12-11T09:16:44.925Z,100690.38
2022-12-11T09:19:16.373Z,100696.34
2022-12-11T09:21:44.482Z,100689.47
2022-12-11T09:24:13.431Z,100681.78
2022-12-11T09:26:41.717Z,100696.28
2022-12-11T09:29:10.425Z,100689.44
2022-12-11T09:31:38.457Z,100690.28
2022-12-11T09:34:08.203Z,100687.72
2022-12-11T09:36:39.351Z,100681.75
2022-12-11T09:39:08.974Z,100686.81
2022-12-11T09:41:40.543Z,100685.84
2022-12-11T09:44:22.965Z,100685.81
2022-12-11T09:46:52.601Z,100671.25
2022-12-11T09:49:28.314Z,100676.31
2022-12-11T09:52:08.341Z,100675.41
2022-12-11T09:54:36.724Z,100660.84
2022-12-11T09:57:15.425Z,100666.78
2022-12-11T10:00:04.829Z,100666.78
2022-12-11T10:02:48.184Z,100665.13
2022-12-11T10:05:22.933Z,100653.16
2022-12-11T10:08:00.743Z,100654.06
2022-12-11T10:10:42.750Z,100656.63
2022-12-11T10:13:23.839Z,100663.34
2022-12-11T10:15:58.548Z,100653.84
2022-12-11T10:18:28.897Z,100646.09
2022-12-11T10:20:56.967Z,100644.31
2022-12-11T10:23:35.609Z,100648.53
2022-12-11T10:26:06.970Z,100648.44
2022-12-11T10:28:36.003Z,100639.03
2022-12-11T10:31:13.959Z,100644.16
2022-12-11T10:33:50.801Z,100643.25
2022-12-11T10:36:26.159Z,100637.19
2022-12-11T10:38:55.140Z,100636.31
2022-12-11T10:41:37.627Z,100626.97
2022-12-11T10:44:16.456Z,100620.09
2022-12-11T10:46:44.807Z,100632.06
2022-12-11T10:49:23.164Z,100626.97
2022-12-11T10:51:51.327Z,100636.34
2022-12-11T10:54:32.328Z,100623.50
2022-12-11T10:57:01.308Z,100626.81
2022-12-11T10:59:36.483Z,100622.56
2022-12-11T11:02:06.391Z,100626.03
2022-12-11T11:04:38.037Z,100621.75
2022-12-11T11:07:13.532Z,100622.56
2022-12-11T11:09:43.005Z,100624.22
2022-12-11T11:12:26.394Z,100625.03
2022-12-11T11:15:02.369Z,100619.03
2022-12-11T11:17:35.351Z,100610.38
2022-12-11T11:20:13.776Z,100610.34
2022-12-11T11:22:45.887Z,100604.31
2022-12-11T11:25:20.797Z,100607.75
2022-12-11T11:27:52.709Z,100595.75
2022-12-11T11:30:23.042Z,100604.28
2022-12-11T11:32:52.870Z,100599.16
2022-12-11T11:35:22.644Z,100600.81
2022-12-11T11:38:01.902Z,100593.94
2022-12-11T11:40:32.522Z,100592.16
2022-12-11T11:43:08.816Z,100585.25
2022-12-11T11:45:44.165Z,100575.75
2022-12-11T11:48:25.945Z,100575.72
2022-12-11T11:50:53.995Z,100574.81
2022-12-11T11:53:28.061Z,100575.63
2022-12-11T11:56:06.424Z,100569.66
2022-12-11T11:58:40.369Z,100566.19
2022-12-11T12:01:15.636Z,100555.06
2022-12-11T12:03:43.384Z,100555.00
2022-12-11T12:06:20.040Z,100556.63
2022-12-11T12:08:54.647Z,100553.19
2022-12-11T12:11:38.995Z,100561.66
2022-12-11T12:14:50.168Z,100561.66
2022-12-11T12:17:16.675Z,100557.34
2022-12-11T12:19:50.978Z,100559.06
2022-12-11T12:22:33.968Z,100564.22
2022-12-11T12:25:12.096Z,100568.53
2022-12-11T12:27:52.406Z,100568.56
2022-12-11T12:30:23.243Z,100575.44
2022-12-11T12:33:06.591Z,100568.63
2022-12-11T12:35:37.038Z,100565.19
2022-12-11T12:38:11.735Z,100567.75
2022-12-11T12:40:55.610Z,100553.22
2022-12-11T12:43:46.598Z,100565.13
2022-12-11T12:46:28.882Z,100557.34
2022-12-11T12:48:59.492Z,100560.69
2022-12-11T12:51:28.024Z,100563.22
2022-12-11T12:53:57.999Z,100546.94
2022-12-11T12:56:26.830Z,100547.81
2022-12-11T12:58:55.754Z,100552.84
2022-12-11T13:01:26.719Z,100551.13
2022-12-11T13:03:57.342Z,100548.50
2022-12-11T13:06:35.013Z,100545.09
2022-12-11T13:09:16.259Z,100547.66
2022-12-11T13:11:44.829Z,100553.66
2022-12-11T13:14:28.817Z,100551.88
2022-12-11T13:17:08.654Z,100555.28
2022-12-11T13:19:42.117Z,100546.66
2022-12-11T13:22:23.112Z,100546.69
2022-12-11T13:25:01.560Z,100550.13
2022-12-11T13:27:39.876Z,100541.63
2022-12-11T13:30:23.373Z,100553.66
2022-12-11T13:33:01.955Z,100553.66
2022-12-11T13:35:30.376Z,100543.41
2022-12-11T13:38:05.670Z,100547.75
2022-12-11T13:40:39.996Z,100548.59
2022-12-11T13:43:16.317Z,100546.84
2022-12-11T13:45:50.031Z,100546.91
2022-12-11T13:48:23.808Z,100544.28
2022-12-11T13:50:52.971Z,100534.88
2022-12-11T13:53:23.303Z,100537.34
2022-12-11T13:55:58.251Z,100542.47
2022-12-11T13:58:27.636Z,100533.06
2022-12-11T14:01:05.152Z,100531.38
2022-12-11T14:03:33.350Z,100529.63
2022-12-11T14:06:02.747Z,100521.09
2022-12-11T14:08:35.247Z,100518.53
2022-12-11T14:11:03.799Z,100527.97
2022-12-11T14:13:34.423Z,100521.19
2022-12-11T14:16:04.915Z,100520.31
2022-12-11T14:18:35.894Z,100528.84
2022-12-11T14:21:05.999Z,100528.88
2022-12-11T14:23:35.266Z,100526.31
2022-12-11T14:26:06.520Z,100527.09
2022-12-11T14:28:38.948Z,100528.88
2022-12-11T14:31:08.696Z,100526.31
2022-12-11T14:33:39.421Z,100527.22
2022-12-11T14:36:08.639Z,100524.66
2022-12-11T14:38:38.978Z,100521.25
2022-12-11T14:41:13.255Z,100516.16
2022-12-11T14:43:44.985Z,100523.97
2022-12-11T14:46:19.712Z,100524.84
2022-12-11T14:48:53.854Z,100521.41
2022-12-11T14:51:29.614Z,100522.28
2022-12-11T14:53:57.611Z,100525.78
2022-12-11T14:56:28.567Z,100520.72
2022-12-11T14:58:59.298Z,100524.16
2022-12-11T15:01:30.402Z,100522.50
2022-12-11T15:04:07.080Z,100521.66
2022-12-11T15:06:36.252Z,100522.50
2022-12-11T15:09:22.657Z,100514.84
2022-12-11T15:11:51.656Z,100527.66
2022-12-11T15:14:21.700Z,100517.41
2022-12-11T15:16:55.948Z,100530.22
2022-12-11T15:19:28.122Z,100518.31
2022-12-11T15:21:57.609Z,100529.41
2022-12-11T15:24:31.921Z,100531.09
2022-12-11T15:27:01.835Z,100530.22
2022-12-11T15:29:34.820Z,100532.84
2022-12-11T15:32:18.561Z,100537.09
2022-12-11T15:34:47.620Z,100527.69
2022-12-11T15:37:20.129Z,100526.88
2022-12-11T15:39:47.610Z,100526.91
2022-12-11T15:42:18.979Z,100525.19
2022-12-11T15:44:46.471Z,100536.31
2022-12-11T15:47:16.827Z,100538.88
2022-12-11T15:49:44.345Z,100534.59
2022-12-11T15:52:11.802Z,100529.47
2022-12-11T15:54:39.299Z,100525.22
2022-12-11T15:57:13.324Z,100524.34
2022-12-11T15:59:41.077Z,100517.59
2022-12-11T16:02:12.206Z,100515.84
2022-12-11T16:04:41.189Z,100526.13
2022-12-11T16:07:16.182Z,100532.13
2022-12-11T16:09:43.714Z,100534.69
2022-12-11T16:12:11.378Z,100530.47
2022-12-11T16:14:39.219Z,100527.03
2022-12-11T16:17:07.351Z,100527.03
2022-12-11T16:19:35.352Z,100525.38
2022-12-11T16:22:04.462Z,100536.50
2022-12-11T16:24:32.312Z,100542.47
2022-12-11T16:26:59.790Z,100540.75
2022-12-11T16:29:27.729Z,100534.78
2022-12-11T16:31:55.396Z,100520.31
2022-12-11T16:34:25.866Z,100524.56
2022-12-11T16:36:53.410Z,100535.72
2022-12-11T16:39:22.156Z,100529.78
2022-12-11T16:41:49.659Z,100538.38
2022-12-11T16:44:20.482Z,100531.53
2022-12-11T16:46:48.338Z,100519.56
2022-12-11T16:49:16.379Z,100517.88
2022-12-11T16:51:44.495Z,100513.59
2022-12-11T16:54:12.403Z,100522.16
2022-12-11T16:56:41.307Z,100521.28
2022-12-11T16:59:09.034Z,100519.63
2022-12-11T17:01:36.644Z,100517.06
2022-12-11T17:04:04.178Z,100524.78
2022-12-11T17:06:32.095Z,100526.44
2022-12-11T17:08:59.645Z,100524.72
2022-12-11T17:11:27.129Z,100509.34
2022-12-11T17:13:57.014Z,100510.19
2022-12-11T17:16:28.889Z,100510.19
2022-12-11T17:18:57.017Z,100517.88
2022-12-11T17:21:24.819Z,100516.16
2022-12-11T17:23:52.878Z,100523.03
2022-12-11T17:26:20.393Z,100523.06
2022-12-11T17:28:47.932Z,100517.09
2022-12-11T17:31:18.425Z,100510.19
2022-12-11T17:33:47.336Z,100520.44
2022-12-11T17:36:17.502Z,100504.25
2022-12-11T17:38:45.620Z,100511.91
2022-12-11T17:41:20.323Z,100515.34
2022-12-11T17:43:48.980Z,100519.59
2022-12-11T17:46:18.569Z,100507.69
2022-12-11T17:48:46.597Z,100506.81
2022-12-11T17:51:20.980Z,100512.81
2022-12-11T17:53:48.616Z,100511.97
2022-12-11T17:56:16.476Z,100519.66
2022-12-11T17:58:44.265Z,100521.34
2022-12-11T18:01:12.322Z,100521.34
2022-12-11T18:03:41.930Z,100506.88
2022-12-11T18:06:12.682Z,100509.44
2022-12-11T18:08:41.089Z,100516.31
2022-12-11T18:11:11.217Z,100512.00
2022-12-11T18:13:39.116Z,100522.25
2022-12-11T18:16:09.371Z,100520.53
2022-12-11T18:18:37.299Z,100517.16
2022-12-11T18:21:06.931Z,100508.66
2022-12-11T18:23:34.908Z,100520.63
2022-12-11T18:26:03.466Z,100517.22
2022-12-11T18:28:32.337Z,100506.97
2022-12-11T18:31:00.876Z,100507.84
2022-12-11T18:33:29.246Z,100513.81
2022-12-11T18:35:57.381Z,100511.25
2022-12-11T18:38:26.289Z,100510.34
2022-12-11T18:40:53.860Z,100519.78
2022-12-11T18:43:21.307Z,100513.81
2022-12-11T18:45:48.965Z,100508.72
2022-12-11T18:48:16.510Z,100512.13
2022-12-11T18:50:47.377Z,100504.47
2022-12-11T18:53:15.182Z,100509.59
2022-12-11T18:55:45.459Z,100507.94
2022-12-11T18:58:14.589Z,100519.03
2022-12-11T19:00:43.634Z,100515.63
2022-12-11T19:03:12.031Z,100512.16
2022-12-11T19:05:42.405Z,100500.25
2022-12-11T19:08:11.508Z,100512.22
2022-12-11T19:10:45.023Z,100507.97
2022-12-11T19:13:13.016Z,100511.38
2022-12-11T19:15:41.859Z,100512.25
2022-12-11T19:18:10.215Z,100512.25
2022-12-11T19:21:03.131Z,100515.72
2022-12-11T19:23:26.881Z,100508.03
2022-12-11T19:25:55.808Z,100502.88
2022-12-11T19:28:24.655Z,100518.25
2022-12-11T19:30:52.363Z,100512.25
2022-12-11T19:33:19.837Z,100509.69
2022-12-11T19:35:47.372Z,100509.69
2022-12-11T19:38:14.858Z,100510.53
2022-12-11T19:40:42.992Z,100519.94
2022-12-11T19:43:12.058Z,100524.25
2022-12-11T19:45:41.450Z,100530.25
2022-12-11T19:48:13.199Z,100514.00
2022-12-11T19:50:40.796Z,100525.13
2022-12-11T19:53:08.317Z,100524.28
2022-12-11T19:55:35.797Z,100531.16
2022-12-11T19:58:03.370Z,100519.09
2022-12-11T20:00:38.129Z,100528.50
2022-12-11T20:03:05.656Z,100531.06
2022-12-11T20:05:33.110Z,100524.19
2022-12-11T20:08:20.545Z,100530.16
2022-12-11T20:10:48.112Z,100514.72
2022-12-11T20:13:16.133Z,100525.00
2022-12-11T20:15:44.956Z,100515.56
2022-12-11T20:18:18.268Z,100523.22
2022-12-11T20:20:46.169Z,100512.13
2022-12-11T20:23:13.649Z,100506.97
2022-12-11T20:25:41.270Z,100516.34
2022-12-11T20:28:08.743Z,100521.47
2022-12-11T20:30:36.494Z,100518.91
2022-12-11T20:33:05.338Z,100513.75
2022-12-11T20:35:34.818Z,100517.19
2022-12-11T20:38:04.022Z,100512.94
2022-12-11T20:40:31.562Z,100521.53
2022-12-11T20:42:59.252Z,100527.44
2022-12-11T20:45:27.138Z,100524.88
2022-12-11T20:47:54.708Z,100523.16
2022-12-11T20:50:23.610Z,100519.72
2022-12-11T20:52:51.122Z,100523.06
2022-12-11T20:55:20.799Z,100517.06
2022-12-11T20:57:48.264Z,100510.19
2022-12-11T21:00:16.949Z,100505.91
2022-12-11T21:02:44.637Z,100513.56
2022-12-11T21:05:12.323Z,100509.28
2022-12-11T21:07:41.268Z,100508.44
2022-12-11T21:10:10.131Z,100501.63
2022-12-11T21:12:38.188Z,100505.88
2022-12-11T21:15:07.289Z,100496.50
2022-12-11T21:17:35.725Z,100499.09
2022-12-11T21:20:03.287Z,100499.09
2022-12-11T21:22:30.796Z,100494.06
2022-12-11T21:24:59.590Z,100503.50
2022-12-11T21:27:27.219Z,100497.44
2022-12-11T21:29:55.034Z,100488.09
2022-12-11T21:32:22.667Z,100492.34
2022-12-11T21:34:51.115Z,100496.66
2022-12-11T21:37:18.619Z,100494.97
2022-12-11T21:39:46.133Z,100488.22
2022-12-11T21:42:14.998Z,100482.22
2022-12-11T21:47:29.981Z,100480.59
2022-12-11T21:49:57.515Z,100487.50
2022-12-11T21:52:25.060Z,100481.50
2022-12-11T21:54:52.563Z,100484.16
2022-12-11T21:57:26.066Z,100476.44
2022-12-11T21:59:54.284Z,100476.50
2022-12-11T22:02:22.011Z,100485.09
2022-12-11T22:04:49.709Z,100480.03
2022-12-11T22:07:17.204Z,100480.03
2022-12-11T22:09:44.861Z,100484.41
2022-12-11T22:12:21.382Z,100491.25
2022-12-11T22:14:50.690Z,100495.59
2022-12-11T22:17:18.858Z,100501.59
2022-12-11T22:19:47.345Z,100492.13
2022-12-11T22:22:15.621Z,100487.81
2022-12-11T22:24:43.144Z,100496.28
2022-12-11T22:27:10.761Z,100498.84
2022-12-11T22:29:38.215Z,100503.94
2022-12-11T22:32:07.143Z,100505.63
2022-12-11T22:34:34.591Z,100508.22
2022-12-11T22:37:02.073Z,100507.38
2022-12-11T22:39:29.518Z,100513.31
2022-12-11T22:41:56.943Z,100507.31
2022-12-11T22:44:24.401Z,100505.56
2022-12-11T22:46:51.866Z,100502.09
2022-12-11T22:49:20.885Z,100513.22
2022-12-11T22:51:49.279Z,100509.78
2022-12-11T22:54:17.301Z,100515.75
2022-12-11T22:56:44.726Z,100519.16
2022-12-11T22:59:12.150Z,100510.59
2022-12-11T23:01:40.422Z,100516.53
2022-12-11T23:04:07.923Z,100510.53
2022-12-11T23:06:36.698Z,100510.44
2022-12-11T23:09:05.019Z,100507.88
2022-12-11T23:11:35.515Z,100507.84
2022-12-11T23:14:03.906Z,100503.56
2022-12-11T23:16:31.594Z,100510.41
2022-12-11T23:18:59.697Z,100504.34
2022-12-11T23:21:28.682Z,100508.72
2022-12-11T23:23:58.381Z,100511.22
2022-12-11T23:26:27.199Z,100490.69
2022-12-11T23:28:55.553Z,100494.09
2022-12-11T23:31:24.056Z,100492.41
2022-12-11T23:33:51.815Z,100486.41
2022-12-11T23:36:19.290Z,100486.44
2022-12-11T23:38:52.572Z,100478.81
2022-12-11T23:41:23.301Z,100477.16
2022-12-11T23:43:50.719Z,100474.63
2022-12-11T23:46:20.650Z,100464.38
2022-12-11T23:48:48.697Z,100480.56
2022-12-11T23:51:19.319Z,100462.63
2022-12-11T23:53:47.205Z,100462.66
2022-12-11T23:56:17.076Z,100470.41
2022-12-11T23:58:45.941Z,100461.06
